sensor_id;sensor_type;location;lat;lon;timestamp;pressure;altitude;pressure_sealevel;temperature;humidity
40570;BME280;26270;34.428;-119.710;2022-09-16T00:00:39;100867.49;;;29.15;37.46
40570;BME280;26270;34.428;-119.710;2022-09-16T00:03:08;100866.35;;;28.90;36.88
40570;BME280;26270;34.428;-119.710;2022-09-16T00:05:40;100863.53;;;28.99;36.94
40570;BME280;26270;34.428;-119.710;2022-09-16T00:08:09;100860.99;;;28.95;37.63
40570;BME280;26270;34.428;-119.710;2022-09-16T00:10:38;100855.74;;;28.95;37.86
40570;BME280;26270;34.428;-119.710;2022-09-16T00:13:06;100849.69;;;28.83;37.52
40570;BME280;26270;34.428;-119.710;2022-09-16T00:15:34;100848.74;;;28.72;37.86
40570;BME280;26270;34.428;-119.710;2022-09-16T00:18:02;100847.42;;;28.60;38.21
40570;BME280;26270;34.428;-119.710;2022-09-16T00:20:30;100842.15;;;28.64;37.14
40570;BME280;26270;34.428;-119.710;2022-09-16T00:22:58;100839.93;;;28.46;37.02
40570;BME280;26270;34.428;-119.710;2022-09-16T00:25:26;100835.85;;;28.69;36.67
40570;BME280;26270;34.428;-119.710;2022-09-16T00:27:53;100832.22;;;28.57;36.34
40570;BME280;26270;34.428;-119.710;2022-09-16T00:30:21;100829.33;;;28.49;35.62
40570;BME280;26270;34.428;-119.710;2022-09-16T00:32:50;100828.31;;;28.65;36.06
40570;BME280;26270;34.428;-119.710;2022-09-16T00:35:18;100826.48;;;28.55;35.51
40570;BME280;26270;34.428;-119.710;2022-09-16T00:37:46;100825.61;;;28.28;36.88
40570;BME280;26270;34.428;-119.710;2022-09-16T00:40:14;100824.23;;;28.57;35.93
40570;BME280;26270;34.428;-119.710;2022-09-16T00:42:43;100824.92;;;28.54;35.79
40570;BME280;26270;34.428;-119.710;2022-09-16T00:45:15;100824.81;;;28.33;35.92
40570;BME280;26270;34.428;-119.710;2022-09-16T00:47:47;100819.96;;;28.62;36.13
40570;BME280;26270;34.428;-119.710;2022-09-16T00:50:24;100824.89;;;28.64;36.67
40570;BME280;26270;34.428;-119.710;2022-09-16T00:52:56;100823.40;;;28.63;39.74
40570;BME280;26270;34.428;-119.710;2022-09-16T00:55:28;100828.70;;;28.48;41.17
40570;BME280;26270;34.428;-119.710;2022-09-16T00:58:03;100828.68;;;28.38;41.99
40570;BME280;26270;34.428;-119.710;2022-09-16T01:00:35;100824.84;;;28.27;42.17
40570;BME280;26270;34.428;-119.710;2022-09-16T01:03:04;100822.76;;;28.26;43.47
40570;BME280;26270;34.428;-119.710;2022-09-16T01:05:33;100822.80;;;28.21;43.52
40570;BME280;26270;34.428;-119.710;2022-09-16T01:08:04;100819.44;;;28.10;43.49
40570;BME280;26270;34.428;-119.710;2022-09-16T01:10:32;100820.91;;;27.92;43.81
40570;BME280;26270;34.428;-119.710;2022-09-16T01:13:03;100820.02;;;28.00;43.54
40570;BME280;26270;34.428;-119.710;2022-09-16T01:15:38;100817.99;;;28.11;43.13
40570;BME280;26270;34.428;-119.710;2022-09-16T01:18:15;100823.07;;;28.02;43.19
40570;BME280;26270;34.428;-119.710;2022-09-16T01:21:01;100823.92;;;27.86;43.86
40570;BME280;26270;34.428;-119.710;2022-09-16T01:24:05;100826.96;;;27.64;44.28
40570;BME280;26270;34.428;-119.710;2022-09-16T01:27:00;100828.99;;;27.72;44.09
40570;BME280;26270;34.428;-119.710;2022-09-16T01:29:44;100831.51;;;27.60;44.20
40570;BME280;26270;34.428;-119.710;2022-09-16T01:32:19;100835.89;;;27.35;43.84
40570;BME280;26270;34.428;-119.710;2022-09-16T01:34:56;100833.55;;;27.33;43.59
40570;BME280;26270;34.428;-119.710;2022-09-16T01:37:34;100834.37;;;27.20;43.78
40570;BME280;26270;34.428;-119.710;2022-09-16T01:40:10;100835.49;;;27.17;43.14
40570;BME280;26270;34.428;-119.710;2022-09-16T01:42:46;100838.51;;;27.06;42.55
40570;BME280;26270;34.428;-119.710;2022-09-16T01:45:21;100838.87;;;27.17;42.63
40570;BME280;26270;34.428;-119.710;2022-09-16T01:47:58;100841.83;;;27.16;43.09
40570;BME280;26270;34.428;-119.710;2022-09-16T01:50:33;100847.15;;;26.94;43.58
40570;BME280;26270;34.428;-119.710;2022-09-16T01:53:11;100845.50;;;26.92;43.73
40570;BME280;26270;34.428;-119.710;2022-09-16T01:55:44;100848.42;;;26.90;44.36
40570;BME280;26270;34.428;-119.710;2022-09-16T01:58:20;100849.40;;;26.68;44.77
40570;BME280;26270;34.428;-119.710;2022-09-16T02:00:52;100853.54;;;26.64;44.79
40570;BME280;26270;34.428;-119.710;2022-09-16T02:03:24;100853.61;;;26.55;45.16
40570;BME280;26270;34.428;-119.710;2022-09-16T02:05:58;100857.58;;;26.61;44.90
40570;BME280;26270;34.428;-119.710;2022-09-16T02:08:31;100856.55;;;26.55;44.97
40570;BME280;26270;34.428;-119.710;2022-09-16T02:11:04;100854.38;;;26.30;45.63
40570;BME280;26270;34.428;-119.710;2022-09-16T02:13:37;100852.19;;;26.36;45.82
40570;BME280;26270;34.428;-119.710;2022-09-16T02:16:10;100851.28;;;26.40;46.10
40570;BME280;26270;34.428;-119.710;2022-09-16T02:18:41;100850.06;;;26.28;46.44
40570;BME280;26270;34.428;-119.710;2022-09-16T02:21:14;100851.64;;;26.31;46.68
40570;BME280;26270;34.428;-119.710;2022-09-16T02:23:44;100856.97;;;26.20;46.93
40570;BME280;26270;34.428;-119.710;2022-09-16T02:26:18;100855.68;;;26.18;48.04
40570;BME280;26270;34.428;-119.710;2022-09-16T02:28:49;100857.45;;;26.18;47.86
40570;BME280;26270;34.428;-119.710;2022-09-16T02:31:23;100859.46;;;26.07;47.68
40570;BME280;26270;34.428;-119.710;2022-09-16T02:33:56;100859.17;;;26.33;47.71
40570;BME280;26270;34.428;-119.710;2022-09-16T02:36:27;100861.95;;;26.11;47.70
40570;BME280;26270;34.428;-119.710;2022-09-16T02:38:58;100863.86;;;25.70;48.35
40570;BME280;26270;34.428;-119.710;2022-09-16T02:41:29;100864.36;;;25.86;49.05
40570;BME280;26270;34.428;-119.710;2022-09-16T02:43:57;100864.75;;;25.68;49.39
40570;BME280;26270;34.428;-119.710;2022-09-16T02:46:30;100860.97;;;25.77;49.25
40570;BME280;26270;34.428;-119.710;2022-09-16T02:49:09;100863.44;;;25.75;49.82
40570;BME280;26270;34.428;-119.710;2022-09-16T02:51:45;100866.66;;;25.55;50.77
40570;BME280;26270;34.428;-119.710;2022-09-16T02:54:22;100867.25;;;25.49;51.12
40570;BME280;26270;34.428;-119.710;2022-09-16T02:56:54;100872.78;;;25.47;51.19
40570;BME280;26270;34.428;-119.710;2022-09-16T02:59:23;100877.16;;;25.35;51.51
40570;BME280;26270;34.428;-119.710;2022-09-16T03:01:51;100880.28;;;25.13;52.00
40570;BME280;26270;34.428;-119.710;2022-09-16T03:04:20;100880.01;;;25.15;51.84
40570;BME280;26270;34.428;-119.710;2022-09-16T03:06:48;100882.28;;;25.06;51.22
40570;BME280;26270;34.428;-119.710;2022-09-16T03:09:17;100880.54;;;25.08;50.61
40570;BME280;26270;34.428;-119.710;2022-09-16T03:13:00;100883.56;;;24.94;50.44
40570;BME280;26270;34.428;-119.710;2022-09-16T03:15:57;100884.42;;;24.96;50.34
40570;BME280;26270;34.428;-119.710;2022-09-16T03:18:58;100890.61;;;25.03;50.81
40570;BME280;26270;34.428;-119.710;2022-09-16T03:21:34;100892.07;;;24.86;51.15
40570;BME280;26270;34.428;-119.710;2022-09-16T03:24:09;100896.35;;;25.01;51.07
40570;BME280;26270;34.428;-119.710;2022-09-16T03:26:45;100900.74;;;24.63;51.61
40570;BME280;26270;34.428;-119.710;2022-09-16T03:29:21;100898.99;;;24.68;51.90
40570;BME280;26270;34.428;-119.710;2022-09-16T03:31:58;100902.25;;;24.82;51.87
40570;BME280;26270;34.428;-119.710;2022-09-16T03:34:34;100905.68;;;24.83;51.87
40570;BME280;26270;34.428;-119.710;2022-09-16T03:37:07;100907.16;;;24.73;52.03
40570;BME280;26270;34.428;-119.710;2022-09-16T03:39:37;100908.60;;;24.92;51.96
40570;BME280;26270;34.428;-119.710;2022-09-16T03:42:08;100910.30;;;24.77;52.51
40570;BME280;26270;34.428;-119.710;2022-09-16T03:44:39;100914.68;;;24.61;52.84
40570;BME280;26270;34.428;-119.710;2022-09-16T03:47:07;100913.22;;;24.52;53.01
40570;BME280;26270;34.428;-119.710;2022-09-16T03:49:36;100919.85;;;24.68;52.84
40570;BME280;26270;34.428;-119.710;2022-09-16T03:52:04;100922.28;;;24.76;53.15
40570;BME280;26270;34.428;-119.710;2022-09-16T03:54:33;100924.37;;;24.61;53.35
40570;BME280;26270;34.428;-119.710;2022-09-16T03:57:01;100926.79;;;24.59;53.53
40570;BME280;26270;34.428;-119.710;2022-09-16T03:59:30;100929.44;;;24.39;53.75
40570;BME280;26270;34.428;-119.710;2022-09-16T04:03:19;100928.29;;;24.22;54.48
40570;BME280;26270;34.428;-119.710;2022-09-16T04:05:52;100931.70;;;24.40;54.56
40570;BME280;26270;34.428;-119.710;2022-09-16T04:08:20;100936.10;;;24.26;54.85
40570;BME280;26270;34.428;-119.710;2022-09-16T04:10:54;100938.95;;;24.11;55.03
40570;BME280;26270;34.428;-119.710;2022-09-16T04:13:23;100941.38;;;23.91;55.94
40570;BME280;26270;34.428;-119.710;2022-09-16T04:15:51;100942.76;;;24.11;55.40
40570;BME280;26270;34.428;-119.710;2022-09-16T04:18:19;100944.56;;;24.18;55.05
40570;BME280;26270;34.428;-119.710;2022-09-16T04:20:47;100948.57;;;23.76;55.88
40570;BME280;26270;34.428;-119.710;2022-09-16T04:23:15;100952.23;;;24.23;55.20
40570;BME280;26270;34.428;-119.710;2022-09-16T04:25:43;100948.74;;;24.06;54.85
40570;BME280;26270;34.428;-119.710;2022-09-16T04:28:11;100950.48;;;24.11;54.50
40570;BME280;26270;34.428;-119.710;2022-09-16T04:30:39;100953.69;;;24.09;54.31
40570;BME280;26270;34.428;-119.710;2022-09-16T04:33:07;100951.68;;;24.09;54.29
40570;BME280;26270;34.428;-119.710;2022-09-16T04:35:35;100955.18;;;23.83;54.51
40570;BME280;26270;34.428;-119.710;2022-09-16T04:38:03;100954.71;;;23.97;54.00
40570;BME280;26270;34.428;-119.710;2022-09-16T04:40:31;100950.15;;;24.02;53.91
40570;BME280;26270;34.428;-119.710;2022-09-16T04:42:59;100952.84;;;23.81;53.64
40570;BME280;26270;34.428;-119.710;2022-09-16T04:45:27;100951.54;;;23.83;53.94
40570;BME280;26270;34.428;-119.710;2022-09-16T04:47:56;100949.68;;;23.93;53.28
40570;BME280;26270;34.428;-119.710;2022-09-16T04:50:24;100956.02;;;23.70;53.45
40570;BME280;26270;34.428;-119.710;2022-09-16T04:52:52;100957.63;;;23.72;53.60
40570;BME280;26270;34.428;-119.710;2022-09-16T04:55:21;100954.92;;;23.71;53.17
40570;BME280;26270;34.428;-119.710;2022-09-16T04:57:49;100957.12;;;23.82;53.24
40570;BME280;26270;34.428;-119.710;2022-09-16T05:00:17;100956.05;;;23.58;53.49
40570;BME280;26270;34.428;-119.710;2022-09-16T05:02:46;100957.18;;;23.82;53.13
40570;BME280;26270;34.428;-119.710;2022-09-16T05:05:14;100957.88;;;23.41;53.62
40570;BME280;26270;34.428;-119.710;2022-09-16T05:07:42;100955.85;;;23.59;53.67
40570;BME280;26270;34.428;-119.710;2022-09-16T05:10:10;100957.97;;;23.45;53.78
40570;BME280;26270;34.428;-119.710;2022-09-16T05:12:39;100958.53;;;23.55;53.90
40570;BME280;26270;34.428;-119.710;2022-09-16T05:15:08;100958.76;;;23.62;53.94
40570;BME280;26270;34.428;-119.710;2022-09-16T05:17:36;100958.92;;;23.56;53.81
40570;BME280;26270;34.428;-119.710;2022-09-16T05:20:05;100956.85;;;23.51;53.30
40570;BME280;26270;34.428;-119.710;2022-09-16T05:22:33;100955.26;;;23.74;53.05
40570;BME280;26270;34.428;-119.710;2022-09-16T05:25:02;100955.25;;;23.64;53.16
40570;BME280;26270;34.428;-119.710;2022-09-16T05:27:30;100954.04;;;23.49;53.29
40570;BME280;26270;34.428;-119.710;2022-09-16T05:29:59;100954.69;;;23.33;53.73
40570;BME280;26270;34.428;-119.710;2022-09-16T05:32:28;100955.24;;;23.10;54.65
40570;BME280;26270;34.428;-119.710;2022-09-16T05:34:56;100957.93;;;22.91;55.11
40570;BME280;26270;34.428;-119.710;2022-09-16T05:37:24;100959.02;;;23.11;54.81
40570;BME280;26270;34.428;-119.710;2022-09-16T05:39:52;100959.36;;;23.10;54.47
40570;BME280;26270;34.428;-119.710;2022-09-16T05:42:20;100960.49;;;23.10;54.31
40570;BME280;26270;34.428;-119.710;2022-09-16T05:44:48;100960.62;;;23.01;54.18
40570;BME280;26270;34.428;-119.710;2022-09-16T05:47:16;100960.56;;;23.09;54.11
40570;BME280;26270;34.428;-119.710;2022-09-16T05:49:44;100960.61;;;23.04;54.10
40570;BME280;26270;34.428;-119.710;2022-09-16T05:52:12;100963.08;;;22.97;54.22
40570;BME280;26270;34.428;-119.710;2022-09-16T05:54:41;100964.02;;;23.05;54.17
40570;BME280;26270;34.428;-119.710;2022-09-16T05:57:09;100965.62;;;22.61;55.53
40570;BME280;26270;34.428;-119.710;2022-09-16T05:59:37;100963.77;;;22.29;57.02
40570;BME280;26270;34.428;-119.710;2022-09-16T06:02:07;100964.51;;;22.44;56.56
40570;BME280;26270;34.428;-119.710;2022-09-16T06:04:35;100959.86;;;22.82;55.27
40570;BME280;26270;34.428;-119.710;2022-09-16T06:07:03;100960.38;;;22.80;54.91
40570;BME280;26270;34.428;-119.710;2022-09-16T06:09:32;100955.66;;;22.79;54.64
40570;BME280;26270;34.428;-119.710;2022-09-16T06:12:00;100952.71;;;22.66;55.14
40570;BME280;26270;34.428;-119.710;2022-09-16T06:14:28;100952.79;;;22.43;55.52
40570;BME280;26270;34.428;-119.710;2022-09-16T06:16:57;100952.32;;;22.37;55.63
40570;BME280;26270;34.428;-119.710;2022-09-16T06:19:25;100949.29;;;22.54;55.09
40570;BME280;26270;34.428;-119.710;2022-09-16T06:21:54;100948.75;;;22.65;54.67
40570;BME280;26270;34.428;-119.710;2022-09-16T06:24:21;100948.69;;;22.89;54.16
40570;BME280;26270;34.428;-119.710;2022-09-16T06:26:49;100945.04;;;22.84;54.26
40570;BME280;26270;34.428;-119.710;2022-09-16T06:29:18;100946.13;;;22.77;54.21
40570;BME280;26270;34.428;-119.710;2022-09-16T06:31:46;100948.72;;;22.83;54.29
40570;BME280;26270;34.428;-119.710;2022-09-16T06:34:16;100948.22;;;22.82;54.43
40570;BME280;26270;34.428;-119.710;2022-09-16T06:36:44;100946.47;;;22.65;54.94
40570;BME280;26270;34.428;-119.710;2022-09-16T06:39:13;100945.74;;;22.74;54.46
40570;BME280;26270;34.428;-119.710;2022-09-16T06:41:42;100948.99;;;22.71;54.71
40570;BME280;26270;34.428;-119.710;2022-09-16T06:44:10;100951.05;;;22.51;54.77
40570;BME280;26270;34.428;-119.710;2022-09-16T06:46:38;100956.45;;;22.58;54.96
40570;BME280;26270;34.428;-119.710;2022-09-16T06:49:07;100959.02;;;22.42;55.26
40570;BME280;26270;34.428;-119.710;2022-09-16T06:51:35;100964.19;;;22.51;54.88
40570;BME280;26270;34.428;-119.710;2022-09-16T06:54:06;100966.14;;;22.56;54.48
40570;BME280;26270;34.428;-119.710;2022-09-16T06:56:35;100968.38;;;22.60;53.96
40570;BME280;26270;34.428;-119.710;2022-09-16T06:59:04;100969.20;;;22.51;54.14
40570;BME280;26270;34.428;-119.710;2022-09-16T07:01:32;100976.25;;;22.62;53.81
40570;BME280;26270;34.428;-119.710;2022-09-16T07:04:03;100979.28;;;22.47;53.95
40570;BME280;26270;34.428;-119.710;2022-09-16T07:06:32;100979.35;;;22.49;53.78
40570;BME280;26270;34.428;-119.710;2022-09-16T07:09:01;100976.58;;;22.45;53.98
40570;BME280;26270;34.428;-119.710;2022-09-16T07:11:30;100968.93;;;22.21;54.72
40570;BME280;26270;34.428;-119.710;2022-09-16T07:13:59;100965.72;;;22.18;54.65
40570;BME280;26270;34.428;-119.710;2022-09-16T07:16:27;100966.96;;;22.30;54.65
40570;BME280;26270;34.428;-119.710;2022-09-16T07:18:56;100970.52;;;22.43;54.24
40570;BME280;26270;34.428;-119.710;2022-09-16T07:21:26;100966.43;;;22.42;54.36
40570;BME280;26270;34.428;-119.710;2022-09-16T07:23:55;100968.35;;;22.28;54.83
40570;BME280;26270;34.428;-119.710;2022-09-16T07:26:26;100973.91;;;22.26;54.68
40570;BME280;26270;34.428;-119.710;2022-09-16T07:28:57;100973.55;;;22.31;55.03
40570;BME280;26270;34.428;-119.710;2022-09-16T07:31:26;100970.21;;;22.43;55.08
40570;BME280;26270;34.428;-119.710;2022-09-16T07:33:56;100971.92;;;22.34;55.10
40570;BME280;26270;34.428;-119.710;2022-09-16T07:36:26;100971.17;;;22.17;55.31
40570;BME280;26270;34.428;-119.710;2022-09-16T07:38:56;100970.95;;;22.16;55.43
40570;BME280;26270;34.428;-119.710;2022-09-16T07:41:27;100974.74;;;22.10;55.80
40570;BME280;26270;34.428;-119.710;2022-09-16T07:43:57;100971.48;;;22.00;55.87
40570;BME280;26270;34.428;-119.710;2022-09-16T07:46:27;100966.70;;;21.87;56.36
40570;BME280;26270;34.428;-119.710;2022-09-16T07:48:56;100968.99;;;21.86;56.38
40570;BME280;26270;34.428;-119.710;2022-09-16T07:51:27;100968.93;;;21.89;56.19
40570;BME280;26270;34.428;-119.710;2022-09-16T07:53:55;100968.03;;;21.87;55.87
40570;BME280;26270;34.428;-119.710;2022-09-16T07:56:25;100966.25;;;21.84;56.19
40570;BME280;26270;34.428;-119.710;2022-09-16T07:58:55;100965.83;;;21.86;56.30
40570;BME280;26270;34.428;-119.710;2022-09-16T08:01:23;100965.47;;;21.90;56.06
40570;BME280;26270;34.428;-119.710;2022-09-16T08:03:51;100967.27;;;21.86;56.29
40570;BME280;26270;34.428;-119.710;2022-09-16T08:06:22;100963.70;;;21.97;56.29
40570;BME280;26270;34.428;-119.710;2022-09-16T08:08:52;100957.85;;;22.05;56.59
40570;BME280;26270;34.428;-119.710;2022-09-16T08:11:22;100956.50;;;21.98;56.76
40570;BME280;26270;34.428;-119.710;2022-09-16T08:13:50;100956.21;;;22.00;56.87
40570;BME280;26270;34.428;-119.710;2022-09-16T08:16:23;100953.01;;;22.09;57.00
40570;BME280;26270;34.428;-119.710;2022-09-16T08:18:55;100949.02;;;21.69;57.59
40570;BME280;26270;34.428;-119.710;2022-09-16T08:21:25;100951.71;;;21.97;57.10
40570;BME280;26270;34.428;-119.710;2022-09-16T08:23:53;100942.38;;;21.78;57.65
40570;BME280;26270;34.428;-119.710;2022-09-16T08:26:22;100941.12;;;21.70;57.51
40570;BME280;26270;34.428;-119.710;2022-09-16T08:28:50;100939.15;;;21.88;56.73
40570;BME280;26270;34.428;-119.710;2022-09-16T08:31:19;100934.94;;;21.63;57.52
40570;BME280;26270;34.428;-119.710;2022-09-16T08:33:47;100932.37;;;21.75;57.40
40570;BME280;26270;34.428;-119.710;2022-09-16T08:36:18;100936.66;;;21.81;56.99
40570;BME280;26270;34.428;-119.710;2022-09-16T08:38:48;100932.38;;;21.76;57.71
40570;BME280;26270;34.428;-119.710;2022-09-16T08:41:34;100931.41;;;21.78;56.99
40570;BME280;26270;34.428;-119.710;2022-09-16T08:44:15;100934.46;;;21.81;56.78
40570;BME280;26270;34.428;-119.710;2022-09-16T08:46:50;100934.25;;;21.79;56.64
40570;BME280;26270;34.428;-119.710;2022-09-16T08:49:29;100935.07;;;21.79;57.06
40570;BME280;26270;34.428;-119.710;2022-09-16T08:52:02;100932.45;;;21.66;57.53
40570;BME280;26270;34.428;-119.710;2022-09-16T08:54:33;100932.06;;;21.38;58.70
40570;BME280;26270;34.428;-119.710;2022-09-16T08:57:05;100929.23;;;21.56;58.22
40570;BME280;26270;34.428;-119.710;2022-09-16T08:59:42;100929.30;;;21.62;58.40
40570;BME280;26270;34.428;-119.710;2022-09-16T09:02:27;100928.38;;;21.62;58.85
40570;BME280;26270;34.428;-119.710;2022-09-16T09:04:58;100932.45;;;21.53;59.21
40570;BME280;26270;34.428;-119.710;2022-09-16T09:07:35;100940.06;;;21.50;59.60
40570;BME280;26270;34.428;-119.710;2022-09-16T09:10:15;100930.79;;;21.47;60.38
40570;BME280;26270;34.428;-119.710;2022-09-16T09:12:51;100924.96;;;21.44;60.26
40570;BME280;26270;34.428;-119.710;2022-09-16T09:15:32;100924.12;;;21.53;60.12
40570;BME280;26270;34.428;-119.710;2022-09-16T09:18:18;100922.67;;;21.54;60.18
40570;BME280;26270;34.428;-119.710;2022-09-16T09:20:55;100924.58;;;21.52;60.15
40570;BME280;26270;34.428;-119.710;2022-09-16T09:23:41;100924.81;;;21.49;60.57
40570;BME280;26270;34.428;-119.710;2022-09-16T09:26:19;100925.25;;;21.40;60.47
40570;BME280;26270;34.428;-119.710;2022-09-16T09:28:58;100921.37;;;21.34;60.95
40570;BME280;26270;34.428;-119.710;2022-09-16T09:31:35;100922.57;;;21.30;61.13
40570;BME280;26270;34.428;-119.710;2022-09-16T09:34:15;100917.78;;;21.37;60.84
40570;BME280;26270;34.428;-119.710;2022-09-16T09:36:57;100916.95;;;21.50;60.43
40570;BME280;26270;34.428;-119.710;2022-09-16T09:39:38;100912.67;;;21.41;60.55
40570;BME280;26270;34.428;-119.710;2022-09-16T09:42:13;100907.33;;;21.39;60.88
40570;BME280;26270;34.428;-119.710;2022-09-16T09:44:50;100904.85;;;21.49;61.15
40570;BME280;26270;34.428;-119.710;2022-09-16T09:47:24;100907.21;;;21.37;61.18
40570;BME280;26270;34.428;-119.710;2022-09-16T09:49:57;100905.54;;;21.17;61.46
40570;BME280;26270;34.428;-119.710;2022-09-16T09:52:32;100902.89;;;21.30;61.43
40570;BME280;26270;34.428;-119.710;2022-09-16T09:55:15;100902.62;;;21.35;61.57
40570;BME280;26270;34.428;-119.710;2022-09-16T09:58:01;100901.95;;;21.28;62.20
40570;BME280;26270;34.428;-119.710;2022-09-16T10:00:31;100903.61;;;21.22;62.47
40570;BME280;26270;34.428;-119.710;2022-09-16T10:03:10;100898.98;;;21.20;62.26
40570;BME280;26270;34.428;-119.710;2022-09-16T10:05:39;100894.40;;;21.01;62.41
40570;BME280;26270;34.428;-119.710;2022-09-16T10:08:14;100896.79;;;21.14;62.53
40570;BME280;26270;34.428;-119.710;2022-09-16T10:10:48;100896.51;;;21.09;62.60
40570;BME280;26270;34.428;-119.710;2022-09-16T10:13:19;100894.41;;;21.29;61.74
40570;BME280;26270;34.428;-119.710;2022-09-16T10:15:48;100896.40;;;21.13;61.31
40570;BME280;26270;34.428;-119.710;2022-09-16T10:18:24;100894.60;;;21.29;60.81
40570;BME280;26270;34.428;-119.710;2022-09-16T10:21:01;100891.42;;;21.14;60.84
40570;BME280;26270;34.428;-119.710;2022-09-16T10:23:30;100886.89;;;21.28;60.76
40570;BME280;26270;34.428;-119.710;2022-09-16T10:26:15;100888.42;;;21.20;60.88
40570;BME280;26270;34.428;-119.710;2022-09-16T10:29:03;100891.67;;;21.06;60.84
40570;BME280;26270;34.428;-119.710;2022-09-16T10:31:40;100887.66;;;21.07;60.99
40570;BME280;26270;34.428;-119.710;2022-09-16T10:34:16;100888.31;;;21.14;61.33
40570;BME280;26270;34.428;-119.710;2022-09-16T10:36:46;100887.67;;;21.03;61.64
40570;BME280;26270;34.428;-119.710;2022-09-16T10:39:26;100888.11;;;21.12;61.78
40570;BME280;26270;34.428;-119.710;2022-09-16T10:41:56;100885.67;;;21.08;61.97
40570;BME280;26270;34.428;-119.710;2022-09-16T10:44:26;100886.99;;;21.19;62.37
40570;BME280;26270;34.428;-119.710;2022-09-16T10:46:58;100888.65;;;21.16;62.09
40570;BME280;26270;34.428;-119.710;2022-09-16T10:49:37;100889.59;;;21.06;62.21
40570;BME280;26270;34.428;-119.710;2022-09-16T10:52:11;100892.14;;;20.98;62.80
40570;BME280;26270;34.428;-119.710;2022-09-16T10:54:41;100891.76;;;21.07;63.30
40570;BME280;26270;34.428;-119.710;2022-09-16T10:57:28;100891.25;;;21.03;62.68
40570;BME280;26270;34.428;-119.710;2022-09-16T11:00:00;100890.54;;;21.11;61.71
40570;BME280;26270;34.428;-119.710;2022-09-16T11:02:45;100889.81;;;21.09;62.16
40570;BME280;26270;34.428;-119.710;2022-09-16T11:05:21;100891.19;;;21.02;61.92
40570;BME280;26270;34.428;-119.710;2022-09-16T11:08:04;100894.36;;;21.21;61.48
40570;BME280;26270;34.428;-119.710;2022-09-16T11:10:41;100893.75;;;20.92;62.45
40570;BME280;26270;34.428;-119.710;2022-09-16T11:13:50;100893.69;;;21.05;62.30
40570;BME280;26270;34.428;-119.710;2022-09-16T11:16:30;100893.65;;;20.86;62.19
40570;BME280;26270;34.428;-119.710;2022-09-16T11:19:10;100897.47;;;20.82;62.37
40570;BME280;26270;34.428;-119.710;2022-09-16T11:21:53;100891.69;;;20.71;62.96
40570;BME280;26270;34.428;-119.710;2022-09-16T11:24:42;100890.85;;;20.74;63.09
40570;BME280;26270;34.428;-119.710;2022-09-16T11:27:16;100889.55;;;20.88;63.26
40570;BME280;26270;34.428;-119.710;2022-09-16T11:29:58;100890.94;;;20.82;63.51
40570;BME280;26270;34.428;-119.710;2022-09-16T11:32:38;100892.55;;;20.83;63.74
40570;BME280;26270;34.428;-119.710;2022-09-16T11:35:28;100897.05;;;20.51;64.71
40570;BME280;26270;34.428;-119.710;2022-09-16T11:38:04;100893.17;;;20.87;64.25
40570;BME280;26270;34.428;-119.710;2022-09-16T11:40:44;100892.48;;;20.77;64.20
40570;BME280;26270;34.428;-119.710;2022-09-16T11:43:41;100894.09;;;20.70;64.10
40570;BME280;26270;34.428;-119.710;2022-09-16T11:46:18;100894.58;;;20.66;64.56
40570;BME280;26270;34.428;-119.710;2022-09-16T11:48:58;100890.41;;;20.54;64.82
40570;BME280;26270;34.428;-119.710;2022-09-16T11:51:39;100889.78;;;20.51;64.76
40570;BME280;26270;34.428;-119.710;2022-09-16T11:54:26;100898.83;;;20.61;64.60
40570;BME280;26270;34.428;-119.710;2022-09-16T11:56:59;100898.03;;;20.44;64.62
40570;BME280;26270;34.428;-119.710;2022-09-16T11:59:34;100893.78;;;20.49;65.00
40570;BME280;26270;34.428;-119.710;2022-09-16T12:02:15;100892.42;;;20.48;64.96
40570;BME280;26270;34.428;-119.710;2022-09-16T12:04:49;100895.53;;;20.34;65.41
40570;BME280;26270;34.428;-119.710;2022-09-16T12:07:25;100899.33;;;20.41;65.06
40570;BME280;26270;34.428;-119.710;2022-09-16T12:10:00;100904.56;;;20.53;65.10
40570;BME280;26270;34.428;-119.710;2022-09-16T12:12:37;100903.79;;;20.36;65.98
40570;BME280;26270;34.428;-119.710;2022-09-16T12:15:14;100903.48;;;20.52;65.48
40570;BME280;26270;34.428;-119.710;2022-09-16T12:17:51;100904.17;;;20.59;65.49
40570;BME280;26270;34.428;-119.710;2022-09-16T12:20:22;100908.23;;;20.47;65.01
40570;BME280;26270;34.428;-119.710;2022-09-16T12:23:00;100905.33;;;20.52;64.74
40570;BME280;26270;34.428;-119.710;2022-09-16T12:25:37;100903.91;;;20.60;65.06
40570;BME280;26270;34.428;-119.710;2022-09-16T12:28:14;100904.06;;;20.46;65.86
40570;BME280;26270;34.428;-119.710;2022-09-16T12:30:46;100903.82;;;20.36;65.75
40570;BME280;26270;34.428;-119.710;2022-09-16T12:33:20;100900.76;;;20.42;65.43
40570;BME280;26270;34.428;-119.710;2022-09-16T12:35:55;100899.91;;;20.34;65.51
40570;BME280;26270;34.428;-119.710;2022-09-16T12:38:25;100902.36;;;20.31;65.81
40570;BME280;26270;34.428;-119.710;2022-09-16T12:41:06;100904.52;;;20.41;65.28
40570;BME280;26270;34.428;-119.710;2022-09-16T12:43:54;100906.31;;;20.43;64.62
40570;BME280;26270;34.428;-119.710;2022-09-16T12:47:21;100906.99;;;20.15;65.25
40570;BME280;26270;34.428;-119.710;2022-09-16T12:50:37;100907.61;;;20.36;65.07
40570;BME280;26270;34.428;-119.710;2022-09-16T12:53:30;100910.28;;;20.44;65.33